CPX217 Details

Departure: Sacramento International Airport (KSMF) at 0520 UTC
Arrival: Chicago/Rockford International Airport (KRFD) at 0955 UTC
Route: SCTWN2 RALEY INSLO DTA DBL J60 IOW PLL
Notes:


Current Weather Information
KSMF 191653Z 19005KT 10SM CLR 19/14 A2994 RMK AO2 SLP137 T01940139
KRFD 191654Z 06007KT 10SM FEW048 SCT060 BKN075 27/19 A3005 RMK AO2 SLP172 T02670189